Time;durP1;ratioP1;P1;durP2;ratioP2;P2;SDS_P1;SDS_P2;PMS_P1;PMS_P2;Temp;Humidity;BMP_temperature;BMP_pressure;BME280_temperature;BME280_humidity;BME280_pressure;Samples;Min_cycle;Max_cycle;Signal;HPM_P1;HPM_P2
2021/12/30 07:55:14;;;;;;;135.38;53.53;;;6.90;99.90;;;;;;5053288;27;20363;-89
2021/12/30 07:57:40;;;;;;;177.27;56.53;;;7.00;99.90;;;;;;5051793;28;20082;-89
2021/12/30 08:00:46;;;;;;;129.15;49.80;;;7.10;99.90;;;;;;5052215;28;20026;-90
2021/12/30 08:03:12;;;;;;;112.65;46.30;;;7.30;99.90;;;;;;5048414;28;20029;-90
2021/12/30 08:05:39;;;;;;;107.65;43.63;;;7.60;99.90;;;;;;5055549;28;20095;-90
2021/12/30 08:08:39;;;;;;;134.65;51.60;;;7.90;99.90;;;;;;5054256;28;20076;-92
2021/12/30 08:11:05;;;;;;;128.13;49.70;;;8.10;99.90;;;;;;5052437;28;20056;-91
2021/12/30 08:13:31;;;;;;;121.05;48.60;;;8.20;99.90;;;;;;5052383;28;20036;-90
2021/12/30 08:16:03;;;;;;;124.85;48.95;;;8.30;99.90;;;;;;5051484;28;20024;-90
2021/12/30 08:18:32;;;;;;;117.53;47.58;;;8.40;99.90;;;;;;5051745;28;20057;-89
2021/12/30 08:21:01;;;;;;;114.72;46.97;;;8.40;99.90;;;;;;5035394;28;20049;-90
2021/12/30 08:26:44;;;;;;;92.38;42.38;;;8.30;99.90;;;;;;5033975;28;20246;-90
2021/12/30 08:29:33;;;;;;;100.30;42.92;;;8.30;99.90;;;;;;5051227;28;20116;-90
2021/12/30 08:31:58;;;;;;;116.65;48.85;;;8.40;99.90;;;;;;5051188;28;20025;-89
2021/12/30 08:34:24;;;;;;;100.05;44.17;;;8.40;99.90;;;;;;5051080;28;20026;-89
2021/12/30 08:36:51;;;;;;;94.07;43.00;;;8.40;99.90;;;;;;5050982;28;20017;-89
2021/12/30 08:39:17;;;;;;;91.20;42.00;;;8.50;99.90;;;;;;5051176;28;20068;-90
2021/12/30 08:41:44;;;;;;;102.63;47.47;;;8.70;99.90;;;;;;5051145;28;20025;-89
2021/12/30 08:44:10;;;;;;;115.05;49.90;;;8.80;99.90;;;;;;5051811;28;20525;-90
2021/12/30 08:46:36;;;;;;;108.20;44.67;;;8.80;99.90;;;;;;5051340;28;20029;-89
2021/12/30 08:49:02;;;;;;;97.70;42.00;;;8.70;99.90;;;;;;5051109;28;20029;-90
2021/12/30 08:51:47;;;;;;;102.10;44.30;;;8.70;99.90;;;;;;5050551;28;20072;-91
2021/12/30 08:54:44;;;;;;;90.77;40.63;;;8.70;99.90;;;;;;5050533;28;20507;-89
2021/12/30 08:57:11;;;;;;;92.57;41.63;;;8.80;99.90;;;;;;5051057;28;20040;-89
2021/12/30 08:59:37;;;;;;;103.40;44.45;;;8.90;99.90;;;;;;5050698;28;20017;-88
2021/12/30 09:02:05;;;;;;;86.88;41.67;;;8.90;99.90;;;;;;5051012;28;20021;-87
2021/12/30 09:04:32;;;;;;;99.85;45.30;;;9.00;99.90;;;;;;5057177;28;20036;-88
2021/12/30 09:06:58;;;;;;;111.85;47.28;;;9.10;99.90;;;;;;5055566;28;20053;-87
2021/12/30 09:13:36;;;;;;;104.82;46.33;;;9.20;99.90;;;;;;4984930;28;20089;-87
2021/12/30 09:19:57;;;;;;;123.03;52.37;;;9.40;99.90;;;;;;4979717;28;20094;-88
2021/12/30 09:22:43;;;;;;;121.35;53.70;;;9.30;99.90;;;;;;4989908;28;20421;-91
2021/12/30 09:25:11;;;;;;;112.90;50.67;;;9.30;99.90;;;;;;5016690;28;20026;-88
2021/12/30 09:27:39;;;;;;;110.95;50.08;;;9.30;99.90;;;;;;5016253;28;20472;-88
2021/12/30 09:30:08;;;;;;;111.30;52.65;;;9.50;99.90;;;;;;5016109;28;20033;-90
2021/12/30 09:32:34;;;;;;;132.75;57.72;;;9.70;99.90;;;;;;5016004;28;20018;-89
2021/12/30 09:35:01;;;;;;;131.10;59.17;;;9.90;99.90;;;;;;5016488;28;20380;-88
2021/12/30 09:37:27;;;;;;;143.20;63.75;;;10.10;99.90;;;;;;5016511;28;20028;-89
2021/12/30 09:40:04;;;;;;;136.43;61.88;;;10.30;99.90;;;;;;5016382;28;20026;-88
2021/12/30 09:42:52;;;;;;;142.73;63.97;;;10.40;99.90;;;;;;5026632;28;20541;-89
2021/12/30 09:45:19;;;;;;;133.10;63.05;;;10.40;99.90;;;;;;5036110;28;20018;-89
2021/12/30 09:47:50;;;;;;;142.73;63.80;;;10.50;99.90;;;;;;5028708;28;20018;-88
2021/12/30 09:53:26;;;;;;;133.32;59.38;;;10.60;99.90;;;;;;5015272;28;20057;-89
2021/12/30 09:56:36;;;;;;;133.75;59.40;;;10.70;99.90;;;;;;5016543;28;20050;-86
2021/12/30 09:59:02;;;;;;;168.63;72.63;;;10.90;99.90;;;;;;5004297;28;20033;-89
2021/12/30 10:01:28;;;;;;;161.25;74.15;;;11.00;99.90;;;;;;5015444;28;20117;-88
2021/12/30 10:07:24;;;;;;;177.13;77.65;;;11.00;99.90;;;;;;5018912;28;20026;-88
2021/12/30 10:09:59;;;;;;;163.02;72.18;;;11.20;99.90;;;;;;5016235;28;20006;-89
2021/12/30 10:12:39;;;;;;;151.27;69.18;;;11.20;99.90;;;;;;5015900;28;20036;-89
2021/12/30 10:15:06;;;;;;;133.50;61.75;;;11.20;99.90;;;;;;5015864;28;20018;-88
2021/12/30 10:17:38;;;;;;;144.40;64.30;;;11.20;99.90;;;;;;5014926;28;20053;-88
2021/12/30 10:20:25;;;;;;;132.95;58.63;;;11.30;99.90;;;;;;5051952;28;20064;-86
2021/12/30 10:23:09;;;;;;;125.10;55.65;;;11.40;99.90;;;;;;5055298;28;20025;-89
2021/12/30 10:25:39;;;;;;;117.63;56.42;;;11.50;99.90;;;;;;5055279;28;20024;-89
2021/12/30 10:28:33;;;;;;;123.55;55.20;;;11.60;99.90;;;;;;5055983;28;20021;-89
2021/12/30 10:31:16;;;;;;;139.23;63.60;;;11.70;99.90;;;;;;5058003;28;20102;-90
2021/12/30 10:33:56;;;;;;;138.23;61.55;;;11.70;99.90;;;;;;5057908;28;20107;-89
2021/12/30 10:36:37;;;;;;;117.10;51.88;;;11.70;99.90;;;;;;5051172;28;20022;-89
2021/12/30 10:39:29;;;;;;;98.70;49.22;;;11.60;99.90;;;;;;5028001;28;20030;-88
2021/12/30 10:42:21;;;;;;;112.70;47.45;;;11.50;99.90;;;;;;5017588;28;20029;-88
2021/12/30 10:44:48;;;;;;;105.20;45.78;;;11.60;99.90;;;;;;5016421;28;20033;-89
2021/12/30 10:47:20;;;;;;;104.32;48.38;;;11.60;99.90;;;;;;5015302;28;20101;-90
2021/12/30 10:50:24;;;;;;;102.88;46.78;;;11.60;99.90;;;;;;5015220;28;20112;-88
2021/12/30 10:52:58;;;;;;;90.50;43.65;;;11.60;99.90;;;;;;5018616;28;20037;-88
2021/12/30 11:02:33;;;;;;;80.45;38.80;;;11.40;99.90;;;;;;4974894;28;19917;-89
2021/12/30 11:05:02;;;;;;;78.97;38.72;;;11.40;99.90;;;;;;4974983;28;20019;-88
2021/12/30 11:10:48;;;;;;;80.90;37.80;;;11.60;99.90;;;;;;5034495;28;20034;-88
2021/12/30 11:13:58;;;;;;;76.15;36.38;;;11.80;99.90;;;;;;5017361;28;20468;-88
2021/12/30 11:16:28;;;;;;;76.53;35.60;;;11.90;99.90;;;;;;4946592;28;20126;-89
2021/12/30 11:19:04;;;;;;;72.47;33.08;;;12.10;99.90;;;;;;5014778;28;20046;-89
2021/12/30 11:21:41;;;;;;;58.90;29.60;;;12.30;99.90;;;;;;5014827;28;20033;-90
2021/12/30 11:24:09;;;;;;;49.25;25.48;;;12.40;99.90;;;;;;5015271;28;20117;-89
2021/12/30 11:27:13;;;;;;;43.60;22.25;;;12.60;99.90;;;;;;5014965;28;20133;-89
2021/12/30 11:29:56;;;;;;;44.67;22.95;;;12.80;99.90;;;;;;5011100;28;20069;-88
2021/12/30 11:32:29;;;;;;;32.38;17.45;;;12.80;99.90;;;;;;5014932;28;20081;-89
2021/12/30 11:35:19;;;;;;;31.92;16.08;;;12.80;99.90;;;;;;5014650;28;20026;-89
2021/12/30 11:37:46;;;;;;;32.58;17.60;;;13.10;99.90;;;;;;5028258;28;20476;-89
2021/12/30 11:46:56;;;;;;;10.00;5.53;;;13.60;99.90;;;;;;5052521;28;20355;-89
2021/12/30 11:49:21;;;;;;;17.90;9.07;;;13.70;99.90;;;;;;5034164;28;20026;-88
2021/12/30 11:52:00;;;;;;;25.10;12.18;;;13.70;99.90;;;;;;5041297;28;20018;-88
2021/12/30 12:01:37;;;;;;;28.55;15.02;;;14.40;99.90;;;;;;5036824;28;20083;-89
2021/12/30 12:04:11;;;;;;;25.15;13.55;;;14.40;99.90;;;;;;5021258;28;20408;-89
2021/12/30 12:06:57;;;;;;;28.08;13.82;;;14.50;99.90;;;;;;5005969;28;20029;-89
2021/12/30 12:09:27;;;;;;;30.38;15.27;;;14.70;99.90;;;;;;5071818;28;20031;-89
2021/12/30 12:11:53;;;;;;;36.13;15.27;;;14.80;99.90;;;;;;5065690;28;20503;-89
2021/12/30 12:14:47;;;;;;;24.63;12.40;;;14.80;99.40;;;;;;5074886;28;20036;-89
2021/12/30 12:17:35;;;;;;;28.40;13.18;;;14.60;99.20;;;;;;5094450;28;20482;-89
2021/12/30 12:23:42;;;;;;;23.55;11.32;;;14.50;99.90;;;;;;5033066;28;20536;-88
2021/12/30 12:26:40;;;;;;;21.30;11.35;;;14.50;99.90;;;;;;5025483;28;20051;-89
2021/12/30 12:29:32;;;;;;;14.98;6.75;;;14.50;99.90;;;;;;5034936;28;20036;-89
2021/12/30 12:32:11;;;;;;;16.13;7.28;;;14.40;97.50;;;;;;5053755;28;20128;-89
2021/12/30 12:35:17;;;;;;;13.77;6.55;;;14.30;98.90;;;;;;5068022;28;20498;-89
2021/12/30 12:37:44;;;;;;;14.65;6.72;;;14.40;98.50;;;;;;5059976;28;20113;-91
2021/12/30 12:40:52;;;;;;;14.23;6.82;;;14.40;99.30;;;;;;5077913;28;20115;-89
2021/12/30 12:46:52;;;;;;;11.32;5.53;;;14.40;98.00;;;;;;5054085;28;20029;-89
2021/12/30 12:50:15;;;;;;;;;;;;;;;;;;;;;
2021/12/30 12:56:59;;;;;;;20.65;8.70;;;14.40;96.80;;;;;;4924552;29;20681;-88
2021/12/30 12:59:25;;;;;;;16.33;7.87;;;14.30;96.90;;;;;;4957516;29;20134;-87
2021/12/30 13:01:57;;;;;;;18.60;7.82;;;14.20;98.30;;;;;;4958185;29;20134;-87
2021/12/30 13:04:51;;;;;;;15.00;6.88;;;14.20;98.50;;;;;;4957953;29;20035;-90
2021/12/30 13:07:21;;;;;;;27.77;12.45;;;14.10;98.40;;;;;;4969199;28;20018;-87
2021/12/30 13:13:43;;;;;;;19.50;8.68;;;13.70;97.60;;;;;;5026927;28;20025;-88
2021/12/30 13:16:28;;;;;;;18.90;8.93;;;13.70;98.50;;;;;;5019595;28;20049;-86
2021/12/30 13:19:22;;;;;;;20.13;9.63;;;13.80;97.60;;;;;;5019517;28;20033;-88
2021/12/30 13:22:05;;;;;;;24.98;10.88;;;13.90;98.20;;;;;;5026007;28;20506;-87
2021/12/30 13:24:48;;;;;;;17.75;8.80;;;13.80;97.30;;;;;;5019271;28;20036;-89
2021/12/30 13:27:14;;;;;;;20.50;8.98;;;13.80;98.00;;;;;;5035902;28;20021;-88
2021/12/30 13:29:46;;;;;;;18.98;9.18;;;13.90;97.80;;;;;;5043615;28;20040;-87
2021/12/30 13:32:15;;;;;;;17.98;8.63;;;14.00;98.30;;;;;;5059502;28;20028;-87
2021/12/30 13:35:18;;;;;;;17.25;8.38;;;14.00;96.70;;;;;;5059672;28;20060;-87
2021/12/30 13:37:48;;;;;;;24.15;9.75;;;13.90;97.10;;;;;;5059419;28;20406;-87
2021/12/30 13:40:28;;;;;;;23.67;10.52;;;13.90;97.50;;;;;;5059015;28;20077;-88
2021/12/30 13:46:36;;;;;;;19.48;8.30;;;13.60;97.80;;;;;;4996089;28;20040;-88
2021/12/30 13:49:03;;;;;;;16.48;8.30;;;13.50;98.90;;;;;;5006362;28;20032;-88
2021/12/30 13:51:44;;;;;;;17.98;8.50;;;13.40;97.90;;;;;;5059072;28;20021;-88
2021/12/30 14:01:49;;;;;;;34.78;15.75;;;13.30;97.90;;;;;;5053423;28;20521;-89
2021/12/30 14:04:22;;;;;;;37.10;16.08;;;13.20;98.20;;;;;;5038062;28;20028;-88
2021/12/30 14:07:07;;;;;;;35.15;14.77;;;13.10;99.60;;;;;;5038284;28;20017;-88
2021/12/30 14:09:36;;;;;;;20.55;9.32;;;13.10;99.20;;;;;;5076131;28;20371;-88
2021/12/30 14:12:10;;;;;;;20.70;9.60;;;13.00;98.90;;;;;;5079189;28;20024;-89
2021/12/30 14:14:38;;;;;;;23.55;9.95;;;13.00;99.90;;;;;;5079069;28;20429;-88
2021/12/30 14:17:04;;;;;;;21.75;9.95;;;13.00;99.90;;;;;;5078887;28;20024;-88
2021/12/30 14:19:40;;;;;;;24.80;10.98;;;13.00;99.90;;;;;;5078577;28;20115;-89
2021/12/30 14:22:09;;;;;;;23.92;10.38;;;13.10;99.90;;;;;;5079141;28;20054;-88
2021/12/30 14:24:49;;;;;;;25.65;10.95;;;13.10;99.90;;;;;;5078170;28;20111;-89
2021/12/30 14:27:26;;;;;;;28.60;12.65;;;13.10;99.90;;;;;;5078560;28;20027;-89
2021/12/30 14:33:34;;;;;;;26.38;11.95;;;13.00;99.90;;;;;;5096673;28;20104;-88
2021/12/30 14:36:56;;;;;;;27.50;11.50;;;13.00;99.90;;;;;;5078251;28;20389;-89
2021/12/30 14:39:34;;;;;;;27.00;12.38;;;12.90;99.30;;;;;;5061869;28;20024;-90
2021/12/30 14:42:09;;;;;;;29.88;12.02;;;12.60;99.60;;;;;;5058474;28;20040;-90
2021/12/30 14:44:36;;;;;;;33.13;13.48;;;12.60;99.90;;;;;;5058301;28;20479;-90
2021/12/30 14:47:14;;;;;;;29.25;13.00;;;12.60;99.90;;;;;;5058583;28;20115;-90
2021/12/30 14:49:58;;;;;;;27.00;11.98;;;12.60;99.90;;;;;;5058376;28;20394;-91
2021/12/30 14:52:32;;;;;;;31.25;14.40;;;12.70;99.90;;;;;;5058245;28;20017;-90
2021/12/30 14:54:58;;;;;;;35.95;14.32;;;12.60;99.90;;;;;;5058290;28;20025;-90
2021/12/30 14:57:26;;;;;;;32.10;15.38;;;12.60;99.90;;;;;;5058322;28;20479;-89
2021/12/30 14:59:54;;;;;;;33.13;15.77;;;12.60;99.90;;;;;;5074769;28;20494;-89
2021/12/30 15:02:26;;;;;;;32.50;13.73;;;12.50;99.90;;;;;;5058068;28;20054;-89
2021/12/30 15:04:53;;;;;;;31.73;15.43;;;12.50;99.90;;;;;;5057952;28;20438;-89
2021/12/30 15:07:20;;;;;;;30.75;14.38;;;12.60;99.90;;;;;;5058207;28;20028;-89
2021/12/30 15:09:51;;;;;;;47.13;19.80;;;12.60;99.90;;;;;;5057981;28;20145;-89
2021/12/30 15:12:18;;;;;;;43.55;20.02;;;12.60;99.90;;;;;;5058081;28;20070;-89
2021/12/30 15:14:49;;;;;;;36.08;17.90;;;12.70;99.90;;;;;;5058105;28;20059;-89
2021/12/30 15:24:01;;;;;;;125.03;54.95;;;12.50;99.90;;;;;;5005147;28;20543;-90
2021/12/30 15:26:30;;;;;;;113.18;52.67;;;12.40;99.90;;;;;;5057908;28;20020;-90
2021/12/30 15:29:08;;;;;;;117.32;48.22;;;12.40;99.90;;;;;;5057739;28;20131;-91
2021/12/30 15:31:34;;;;;;;115.10;50.70;;;12.40;99.90;;;;;;5058843;28;20440;-92
2021/12/30 15:34:00;;;;;;;147.65;60.22;;;12.50;99.90;;;;;;5057905;28;20027;-88
2021/12/30 15:36:26;;;;;;;142.27;59.95;;;12.40;99.90;;;;;;5057167;28;20024;-88
2021/12/30 15:38:51;;;;;;;151.10;64.68;;;12.30;99.90;;;;;;5057322;28;20025;-88
2021/12/30 15:41:17;;;;;;;157.38;64.38;;;12.30;99.90;;;;;;5057363;28;20024;-89
2021/12/30 15:43:45;;;;;;;133.82;55.78;;;12.10;99.90;;;;;;5057222;28;20107;-89
2021/12/30 15:46:10;;;;;;;146.70;63.35;;;12.10;99.90;;;;;;5057262;28;20020;-89
2021/12/30 15:48:37;;;;;;;162.52;69.07;;;12.20;99.90;;;;;;5057425;28;20025;-88
2021/12/30 15:51:03;;;;;;;181.43;79.00;;;12.20;99.90;;;;;;5057472;28;20021;-89
2021/12/30 15:53:29;;;;;;;189.73;85.70;;;12.20;99.90;;;;;;5057416;28;20035;-89
2021/12/30 15:55:55;;;;;;;203.82;88.93;;;12.20;99.90;;;;;;5057016;28;20032;-89
2021/12/30 15:58:21;;;;;;;176.45;79.10;;;12.10;99.90;;;;;;5063609;28;20055;-88
2021/12/30 16:00:47;;;;;;;189.27;83.90;;;12.10;99.90;;;;;;5068856;28;20047;-89
2021/12/30 16:03:13;;;;;;;221.52;94.47;;;12.00;99.90;;;;;;5066442;28;20107;-88
2021/12/30 16:05:39;;;;;;;203.00;89.55;;;12.00;99.90;;;;;;5063710;28;20021;-89
2021/12/30 16:08:06;;;;;;;199.27;85.70;;;12.00;99.90;;;;;;5069586;28;20021;-88
2021/12/30 16:10:32;;;;;;;293.27;108.78;;;11.90;99.90;;;;;;5068930;28;20035;-86
2021/12/30 16:12:59;;;;;;;289.92;105.05;;;11.90;99.90;;;;;;5068153;28;20017;-90
2021/12/30 16:15:24;;;;;;;257.15;94.45;;;11.80;99.90;;;;;;5078262;28;20470;-89
2021/12/30 16:17:51;;;;;;;240.98;91.53;;;11.80;99.90;;;;;;5081360;28;20051;-89
2021/12/30 16:21:01;;;;;;;246.27;94.35;;;11.90;99.90;;;;;;5081001;28;20050;-88
2021/12/30 16:23:37;;;;;;;239.43;92.97;;;11.80;99.90;;;;;;5044102;28;20123;-88
2021/12/30 16:26:03;;;;;;;237.57;97.05;;;11.80;99.90;;;;;;5080996;28;20030;-89
2021/12/30 16:28:29;;;;;;;254.73;102.00;;;11.70;99.90;;;;;;5081060;28;20229;-89
2021/12/30 16:30:55;;;;;;;227.75;91.43;;;11.70;99.90;;;;;;5081059;28;20022;-88
2021/12/30 16:33:21;;;;;;;237.75;99.15;;;11.70;99.90;;;;;;5081272;28;20024;-89
2021/12/30 16:35:47;;;;;;;242.45;95.45;;;11.70;99.90;;;;;;5080735;28;20020;-89
2021/12/30 16:38:15;;;;;;;245.80;102.78;;;11.60;99.90;;;;;;5080446;28;20106;-88
2021/12/30 16:40:41;;;;;;;256.27;109.43;;;11.60;99.90;;;;;;5080858;28;20386;-88
2021/12/30 16:43:09;;;;;;;303.73;126.90;;;11.60;99.90;;;;;;5080144;28;20391;-88
2021/12/30 16:45:37;;;;;;;283.92;118.85;;;11.70;99.90;;;;;;5080832;28;20044;-88
2021/12/30 16:48:04;;;;;;;285.25;123.07;;;11.70;99.90;;;;;;5081023;28;20042;-88
2021/12/30 16:50:30;;;;;;;248.40;110.93;;;11.70;99.90;;;;;;5080530;28;20020;-88
2021/12/30 16:52:56;;;;;;;264.25;112.43;;;11.60;99.90;;;;;;5080064;28;20020;-88
2021/12/30 16:55:22;;;;;;;274.38;117.32;;;11.50;99.90;;;;;;5080870;28;20107;-88
2021/12/30 16:57:50;;;;;;;239.77;102.95;;;11.50;99.90;;;;;;5080207;28;20024;-88
2021/12/30 17:00:19;;;;;;;244.95;106.05;;;11.50;99.90;;;;;;5080322;28;20055;-88
2021/12/30 17:02:45;;;;;;;274.05;118.82;;;11.50;99.90;;;;;;5080072;28;20031;-88
2021/12/30 17:05:13;;;;;;;283.77;120.00;;;11.50;99.90;;;;;;5079844;28;20035;-88
2021/12/30 17:07:39;;;;;;;273.42;115.13;;;11.50;99.90;;;;;;5080480;28;20132;-88
2021/12/30 17:10:08;;;;;;;235.60;102.15;;;11.40;99.90;;;;;;5063522;28;20052;-88
2021/12/30 17:12:34;;;;;;;276.83;118.47;;;11.30;99.90;;;;;;5080368;28;20020;-88
2021/12/30 17:15:00;;;;;;;249.25;103.15;;;11.40;99.90;;;;;;5080024;28;20562;-88
2021/12/30 17:17:25;;;;;;;272.15;114.03;;;11.50;99.90;;;;;;5080509;28;20107;-88
2021/12/30 17:19:51;;;;;;;239.48;103.68;;;11.40;99.90;;;;;;5079578;28;20031;-88
2021/12/30 17:22:17;;;;;;;242.15;99.82;;;11.30;99.90;;;;;;5079778;28;20499;-88
2021/12/30 17:24:46;;;;;;;230.73;98.28;;;11.20;99.90;;;;;;5080160;28;20032;-88
2021/12/30 17:27:13;;;;;;;211.43;88.95;;;11.20;99.90;;;;;;5079534;28;20102;-88
2021/12/30 17:29:38;;;;;;;206.45;84.25;;;11.20;99.90;;;;;;5079872;28;20382;-88
2021/12/30 17:32:04;;;;;;;208.10;83.50;;;11.20;99.90;;;;;;5079828;28;20112;-89
2021/12/30 17:34:30;;;;;;;209.52;86.13;;;11.20;99.90;;;;;;5079726;28;20031;-88
2021/12/30 17:36:59;;;;;;;229.23;91.72;;;11.20;99.90;;;;;;5079414;28;20095;-88
2021/12/30 17:39:29;;;;;;;237.65;92.60;;;11.20;99.90;;;;;;5079507;28;20050;-89
2021/12/30 17:41:55;;;;;;;221.20;92.18;;;11.20;99.90;;;;;;5079663;28;20024;-88
2021/12/30 17:44:21;;;;;;;260.13;102.85;;;11.20;99.90;;;;;;5079489;28;20032;-88
2021/12/30 17:46:47;;;;;;;266.85;105.30;;;11.20;99.90;;;;;;5079453;28;20092;-88
2021/12/30 17:49:13;;;;;;;272.83;106.63;;;11.00;99.90;;;;;;5079376;28;20028;-88
2021/12/30 17:51:39;;;;;;;246.98;105.65;;;10.90;99.90;;;;;;5079526;28;20016;-88
2021/12/30 17:54:07;;;;;;;260.83;110.07;;;10.90;99.90;;;;;;5079297;28;20024;-88
2021/12/30 17:56:33;;;;;;;238.15;98.93;;;10.90;99.90;;;;;;5078786;28;20086;-88
2021/12/30 17:58:59;;;;;;;230.43;96.82;;;10.80;99.90;;;;;;5079066;28;20133;-88
2021/12/30 18:01:24;;;;;;;221.43;93.72;;;10.80;99.90;;;;;;5096995;28;20126;-88
2021/12/30 18:03:50;;;;;;;195.60;85.22;;;10.80;99.90;;;;;;5079075;28;20024;-88
2021/12/30 18:06:16;;;;;;;279.80;110.50;;;10.80;99.90;;;;;;5079143;28;20023;-88
2021/12/30 18:08:43;;;;;;;264.58;107.03;;;10.80;99.90;;;;;;5079195;28;20016;-88
2021/12/30 18:11:09;;;;;;;240.32;98.05;;;10.70;99.90;;;;;;5079045;28;20513;-88
2021/12/30 18:13:36;;;;;;;222.77;93.35;;;10.70;99.90;;;;;;5079091;28;20020;-89
2021/12/30 18:16:02;;;;;;;247.05;103.07;;;10.60;99.90;;;;;;5079146;28;20024;-88
2021/12/30 18:18:28;;;;;;;206.95;90.15;;;10.60;99.90;;;;;;5079116;28;20062;-88
2021/12/30 18:20:54;;;;;;;207.45;87.95;;;10.60;99.90;;;;;;5078651;28;20055;-89
2021/12/30 18:23:20;;;;;;;203.98;86.38;;;10.60;99.90;;;;;;5078719;28;20023;-88
2021/12/30 18:25:46;;;;;;;202.60;87.50;;;10.50;99.90;;;;;;5079049;28;20027;-88
2021/12/30 18:28:12;;;;;;;205.80;87.43;;;10.50;99.90;;;;;;5078445;28;20017;-88
2021/12/30 18:30:40;;;;;;;251.45;101.88;;;10.50;99.90;;;;;;5078314;28;20020;-88
2021/12/30 18:33:06;;;;;;;216.65;94.32;;;10.30;99.90;;;;;;5078333;28;20078;-88
2021/12/30 18:35:32;;;;;;;261.30;109.00;;;10.30;99.90;;;;;;5078262;28;20489;-89
2021/12/30 18:37:59;;;;;;;261.13;106.18;;;10.30;99.90;;;;;;5078133;28;20027;-88
2021/12/30 18:40:27;;;;;;;257.25;105.00;;;10.30;99.90;;;;;;5078457;28;20043;-88
2021/12/30 18:42:55;;;;;;;277.85;109.88;;;10.30;99.90;;;;;;5078526;28;20060;-88
2021/12/30 18:45:21;;;;;;;233.98;96.70;;;10.30;99.90;;;;;;5078426;28;20098;-88
2021/12/30 18:47:47;;;;;;;280.27;110.07;;;10.30;99.90;;;;;;5078479;28;20016;-88
2021/12/30 18:50:27;;;;;;;246.85;104.72;;;10.30;99.90;;;;;;5078230;28;20027;-88
2021/12/30 18:53:00;;;;;;;253.85;108.63;;;10.20;99.90;;;;;;5078079;28;20024;-87
2021/12/30 18:55:26;;;;;;;297.42;123.03;;;10.20;99.90;;;;;;5078657;28;20115;-87
2021/12/30 18:57:58;;;;;;;293.88;117.95;;;10.20;99.90;;;;;;5078415;28;20024;-87
2021/12/30 19:00:34;;;;;;;284.90;111.30;;;10.20;99.90;;;;;;5077923;28;20393;-87
2021/12/30 19:03:00;;;;;;;271.70;102.65;;;10.20;99.90;;;;;;5078101;28;20028;-87
2021/12/30 19:05:28;;;;;;;279.40;104.88;;;10.10;99.90;;;;;;5077991;28;20363;-87
2021/12/30 19:07:54;;;;;;;293.77;105.80;;;10.10;99.90;;;;;;5078282;28;20024;-87
2021/12/30 19:10:22;;;;;;;317.10;115.00;;;10.00;99.90;;;;;;5077966;28;20390;-87
2021/12/30 19:12:53;;;;;;;316.13;116.10;;;10.10;99.90;;;;;;5078713;28;20027;-87
2021/12/30 19:15:21;;;;;;;265.40;103.50;;;10.10;99.90;;;;;;5077503;28;20051;-87
2021/12/30 19:17:47;;;;;;;247.80;102.57;;;10.00;99.90;;;;;;5077599;28;20028;-87
2021/12/30 19:20:16;;;;;;;248.95;105.70;;;10.00;99.90;;;;;;5077642;28;20028;-87
2021/12/30 19:22:42;;;;;;;252.93;108.95;;;9.90;99.90;;;;;;5077788;28;20020;-87
2021/12/30 19:25:08;;;;;;;251.88;106.03;;;9.80;99.90;;;;;;5078275;28;20054;-87
2021/12/30 19:27:34;;;;;;;243.70;100.28;;;9.80;99.90;;;;;;5078013;28;20077;-87
2021/12/30 19:30:00;;;;;;;225.68;94.78;;;9.70;99.90;;;;;;5077578;28;20032;-87
2021/12/30 19:32:27;;;;;;;251.65;111.75;;;9.60;99.90;;;;;;5077676;28;20504;-87
2021/12/30 19:34:54;;;;;;;262.95;111.57;;;9.60;99.90;;;;;;5077989;28;20474;-87
2021/12/30 19:37:20;;;;;;;233.45;102.03;;;9.60;99.90;;;;;;5077680;28;20039;-87
2021/12/30 19:39:51;;;;;;;225.13;94.30;;;9.60;99.90;;;;;;5077576;28;20086;-87
2021/12/30 19:42:19;;;;;;;228.95;97.07;;;9.50;99.90;;;;;;5077187;28;20024;-87
2021/12/30 19:44:45;;;;;;;202.52;87.32;;;9.40;99.90;;;;;;5077164;28;20490;-87
2021/12/30 19:47:11;;;;;;;225.93;94.07;;;9.30;99.90;;;;;;5077192;28;20016;-87
2021/12/30 19:49:37;;;;;;;210.70;91.00;;;9.30;99.90;;;;;;5077195;28;20360;-87
2021/12/30 19:52:04;;;;;;;201.77;85.35;;;9.30;99.90;;;;;;5077843;28;20020;-85
2021/12/30 19:54:29;;;;;;;188.45;80.00;;;9.30;99.90;;;;;;5077033;28;20382;-87
2021/12/30 19:56:55;;;;;;;190.82;81.38;;;9.30;99.90;;;;;;5077265;28;20027;-87
2021/12/30 19:59:21;;;;;;;178.52;75.10;;;9.20;99.90;;;;;;5077137;28;20370;-87
2021/12/30 20:01:47;;;;;;;179.85;75.95;;;9.20;99.90;;;;;;5076695;28;20044;-87
2021/12/30 20:04:13;;;;;;;182.32;76.63;;;9.20;99.90;;;;;;5076882;28;20086;-87
2021/12/30 20:06:39;;;;;;;165.30;69.43;;;9.20;99.90;;;;;;5082378;28;20030;-88
2021/12/30 20:09:38;;;;;;;161.70;68.68;;;9.10;99.90;;;;;;5077038;28;20111;-88
2021/12/30 20:12:04;;;;;;;156.63;66.32;;;9.10;99.90;;;;;;5077015;28;20111;-87
2021/12/30 20:14:30;;;;;;;161.30;64.85;;;9.00;99.90;;;;;;5076925;28;20542;-88
2021/12/30 20:16:57;;;;;;;157.73;67.30;;;9.00;99.90;;;;;;5077150;28;20115;-87
2021/12/30 20:19:23;;;;;;;130.25;57.58;;;9.00;99.90;;;;;;5077346;28;20021;-87
2021/12/30 20:21:48;;;;;;;147.75;62.80;;;9.00;99.90;;;;;;5077392;28;20021;-87
2021/12/30 20:24:14;;;;;;;146.40;62.67;;;9.00;99.90;;;;;;5077411;28;20028;-87
2021/12/30 20:26:40;;;;;;;187.02;80.32;;;9.00;99.90;;;;;;5077459;28;20371;-87
2021/12/30 20:29:08;;;;;;;164.90;70.20;;;9.10;99.90;;;;;;5077039;28;20030;-87
2021/12/30 20:31:35;;;;;;;160.43;67.97;;;9.00;99.90;;;;;;5077070;28;20020;-87
2021/12/30 20:34:03;;;;;;;162.48;68.13;;;9.00;99.90;;;;;;5076928;28;20364;-87
2021/12/30 20:36:30;;;;;;;159.48;69.15;;;8.90;99.90;;;;;;5076660;28;20028;-87
2021/12/30 20:38:56;;;;;;;173.93;70.65;;;8.90;99.90;;;;;;5076985;28;20024;-87
2021/12/30 20:41:25;;;;;;;181.45;74.82;;;8.90;99.90;;;;;;5076926;28;20024;-87
2021/12/30 20:43:51;;;;;;;182.25;74.55;;;8.80;99.90;;;;;;5076985;28;20028;-87
2021/12/30 20:46:17;;;;;;;167.30;68.22;;;8.70;99.90;;;;;;5076859;28;20021;-87
2021/12/30 20:48:47;;;;;;;176.52;73.78;;;8.70;99.90;;;;;;5076979;28;20024;-87
2021/12/30 20:51:13;;;;;;;180.20;73.15;;;8.70;99.90;;;;;;5077360;28;20016;-87
2021/12/30 20:53:39;;;;;;;158.65;70.80;;;8.80;99.90;;;;;;5077043;28;20024;-87
2021/12/30 20:56:07;;;;;;;163.98;70.18;;;8.70;99.90;;;;;;5077058;28;20031;-87
2021/12/30 20:58:33;;;;;;;179.25;75.38;;;8.70;99.90;;;;;;5077201;28;20036;-87
2021/12/30 21:00:59;;;;;;;175.65;75.82;;;8.60;99.90;;;;;;5095505;28;20512;-87
2021/12/30 21:03:25;;;;;;;177.18;74.13;;;8.50;99.90;;;;;;5081125;28;20020;-87
2021/12/30 21:05:52;;;;;;;182.45;79.40;;;8.40;99.90;;;;;;5080548;28;20024;-87
2021/12/30 21:08:18;;;;;;;170.25;74.93;;;8.30;99.90;;;;;;5080666;28;20023;-87
2021/12/30 21:10:47;;;;;;;184.02;77.90;;;8.30;99.90;;;;;;5080498;28;20024;-87
2021/12/30 21:13:13;;;;;;;182.13;74.25;;;8.20;99.90;;;;;;5079805;28;20027;-87
2021/12/30 21:15:41;;;;;;;171.50;68.38;;;8.20;99.90;;;;;;5080471;28;20020;-87
2021/12/30 21:18:07;;;;;;;193.02;75.38;;;8.20;99.90;;;;;;5080140;28;20016;-87
2021/12/30 21:20:35;;;;;;;178.50;73.10;;;8.10;99.90;;;;;;5080414;28;20017;-87
2021/12/30 21:23:01;;;;;;;169.50;68.85;;;8.00;99.90;;;;;;5080964;28;20032;-87
2021/12/30 21:25:27;;;;;;;169.70;68.78;;;8.00;99.90;;;;;;5080309;28;20035;-87
2021/12/30 21:27:57;;;;;;;162.00;65.05;;;8.10;99.90;;;;;;5080292;28;20043;-87
2021/12/30 21:30:31;;;;;;;147.00;60.00;;;8.10;99.90;;;;;;5080136;28;20031;-87
2021/12/30 21:33:00;;;;;;;145.55;59.72;;;8.10;99.90;;;;;;5096770;28;20024;-87
2021/12/30 21:35:26;;;;;;;161.80;65.93;;;8.10;99.90;;;;;;5080222;28;20024;-87
2021/12/30 21:37:52;;;;;;;152.07;62.90;;;8.00;99.90;;;;;;5080108;28;20046;-87
2021/12/30 21:40:20;;;;;;;152.35;61.53;;;7.90;99.90;;;;;;5079745;28;20024;-87
2021/12/30 21:42:46;;;;;;;141.77;57.97;;;7.90;99.90;;;;;;5080071;28;20020;-87
2021/12/30 21:45:13;;;;;;;132.23;55.28;;;7.90;99.90;;;;;;5079663;28;20055;-87
2021/12/30 21:47:39;;;;;;;135.48;55.42;;;8.00;99.90;;;;;;5079956;28;20069;-87
